Time;durP1;ratioP1;P1;durP2;ratioP2;P2;SDS_P1;SDS_P2;PMS_P1;PMS_P2;Temp;Humidity;BMP_temperature;BMP_pressure;BME280_temperature;BME280_humidity;BME280_pressure;Samples;Min_cycle;Max_cycle;Signal;HPM_P1;HPM_P2
2021/11/27 00:00:58;;;;;;;102.95;41.10;;;;;;;2.99;80.59;98565.22;1703925;81;98736;-70
2021/11/27 00:03:26;;;;;;;97.45;40.78;;;;;;;2.98;80.59;98563.50;1719636;81;25735;-68
2021/11/27 00:05:55;;;;;;;101.85;42.75;;;;;;;2.96;80.66;98572.83;1722013;81;25315;-69
2021/11/27 00:08:22;;;;;;;107.87;44.03;;;;;;;2.94;80.64;98568.08;1721131;81;98630;-68
2021/11/27 00:10:53;;;;;;;94.17;40.92;;;;;;;2.94;80.69;98565.43;1720197;80;26515;-69
2021/11/27 00:13:21;;;;;;;99.83;41.90;;;;;;;2.92;80.60;98561.99;1712792;79;98610;-68
2021/11/27 00:15:49;;;;;;;98.92;41.28;;;;;;;2.87;80.58;98559.56;1753156;79;25919;-69
2021/11/27 00:18:16;;;;;;;103.22;40.60;;;;;;;2.83;80.62;98556.66;1752767;79;98654;-68
2021/11/27 00:20:47;;;;;;;106.65;43.25;;;;;;;2.81;80.62;98557.66;1751423;79;26109;-68
2021/11/27 00:23:15;;;;;;;115.17;45.20;;;;;;;2.82;80.79;98558.91;1752751;79;32518;-68
2021/11/27 00:25:42;;;;;;;126.30;46.92;;;;;;;2.88;80.87;98558.63;1741691;80;98840;-69
2021/11/27 00:28:09;;;;;;;109.27;43.85;;;;;;;2.90;80.86;98557.23;1758674;79;26151;-69
2021/11/27 00:30:38;;;;;;;127.92;46.08;;;;;;;2.92;80.81;98556.23;1744957;80;99185;-68
2021/11/27 00:33:06;;;;;;;114.80;44.42;;;;;;;2.92;80.81;98550.95;1755460;78;26006;-69
2021/11/27 00:35:33;;;;;;;118.28;46.02;;;;;;;2.91;80.81;98549.23;1733933;80;25280;-68
2021/11/27 00:38:00;;;;;;;116.17;43.87;;;;;;;2.92;80.84;98540.36;1741533;80;98819;-68
2021/11/27 00:40:29;;;;;;;122.85;47.38;;;;;;;2.92;80.87;98544.80;1749805;80;25397;-68
2021/11/27 00:42:56;;;;;;;119.22;46.65;;;;;;;2.93;80.94;98544.73;1742821;80;98900;-68
2021/11/27 00:45:25;;;;;;;118.10;44.35;;;;;;;2.94;80.89;98540.29;1751352;80;26227;-68
2021/11/27 00:47:54;;;;;;;110.57;44.30;;;;;;;2.94;80.92;98541.15;1744335;79;25831;-68
2021/11/27 00:50:30;;;;;;;113.10;45.70;;;;;;;2.93;80.96;98532.81;1748297;80;98674;-69
2021/11/27 00:52:59;;;;;;;110.03;45.05;;;;;;;2.97;81.02;98531.35;1734327;80;25721;-68
2021/11/27 00:55:26;;;;;;;115.67;44.65;;;;;;;2.97;80.98;98533.53;1744306;78;98664;-68
2021/11/27 00:57:53;;;;;;;109.05;46.30;;;;;;;2.97;80.98;98535.33;1755457;79;26596;-68
2021/11/27 01:00:25;;;;;;;101.60;42.43;;;;;;;2.96;81.01;98538.90;1749570;80;98841;-68
2021/11/27 01:02:52;;;;;;;109.10;44.23;;;;;;;2.94;80.97;98540.29;1739188;80;27564;-68
2021/11/27 01:05:20;;;;;;;106.47;42.62;;;;;;;2.92;81.02;98541.69;1732337;80;27227;-68
2021/11/27 01:07:47;;;;;;;119.93;46.85;;;;;;;2.91;80.97;98543.94;1740268;80;98793;-68
2021/11/27 01:10:18;;;;;;;110.78;46.33;;;;;;;2.86;80.89;98537.14;1736317;80;26160;-68
2021/11/27 01:12:45;;;;;;;110.68;46.98;;;;;;;2.80;80.93;98539.60;1706628;81;98862;-68
2021/11/27 01:15:14;;;;;;;113.08;46.30;;;;;;;2.80;81.02;98544.03;1717829;81;27998;-68
2021/11/27 01:17:41;;;;;;;109.87;47.20;;;;;;;2.77;81.02;98541.06;1750153;80;25847;-68
2021/11/27 01:20:11;;;;;;;107.10;45.83;;;;;;;2.77;81.10;98542.84;1748722;80;98773;-68
2021/11/27 01:22:37;;;;;;;120.02;47.17;;;;;;;2.77;81.08;98538.41;1745843;80;26058;-69
2021/11/27 01:25:06;;;;;;;133.12;48.05;;;;;;;2.76;81.09;98539.34;1737921;80;98864;-69
2021/11/27 01:27:32;;;;;;;128.15;47.95;;;;;;;2.76;81.12;98542.45;1741425;80;28157;-68
2021/11/27 01:29:58;;;;;;;121.95;48.65;;;;;;;2.76;81.11;98544.64;1740962;80;98661;-68
2021/11/27 01:32:24;;;;;;;125.53;48.28;;;;;;;2.73;81.13;98537.30;1738716;80;25758;-68
2021/11/27 01:34:51;;;;;;;116.17;46.15;;;;;;;2.71;81.11;98537.37;1740891;80;28172;-69
2021/11/27 01:37:17;;;;;;;128.53;49.27;;;;;;;2.71;81.21;98540.02;1717360;80;98702;-69
2021/11/27 01:39:44;;;;;;;141.75;50.50;;;;;;;2.70;81.18;98538.30;1744918;80;27458;-69
2021/11/27 01:42:13;;;;;;;132.50;51.45;;;;;;;2.68;81.27;98533.55;1742220;80;104864;-68
2021/11/27 01:44:39;;;;;;;110.17;46.77;;;;;;;2.67;81.34;98535.80;1745674;80;25841;-68
2021/11/27 01:47:08;;;;;;;122.55;47.10;;;;;;;2.70;81.33;98531.69;1739262;80;28118;-67
2021/11/27 01:49:35;;;;;;;117.55;44.53;;;;;;;2.68;81.33;98525.61;1746718;80;98716;-68
2021/11/27 01:52:04;;;;;;;117.15;47.88;;;;;;;2.70;81.35;98530.36;1748389;80;27394;-68
2021/11/27 01:54:30;;;;;;;123.67;46.28;;;;;;;2.68;81.38;98519.46;1749748;80;98971;-68
2021/11/27 01:57:01;;;;;;;116.08;45.43;;;;;;;2.67;81.37;98517.74;1744794;80;25816;-68
2021/11/27 01:59:30;;;;;;;115.10;45.12;;;;;;;2.65;81.34;98516.48;1714314;80;26059;-68
2021/11/27 02:01:57;;;;;;;114.92;45.48;;;;;;;2.64;81.44;98514.77;1714758;81;98805;-68
2021/11/27 02:04:25;;;;;;;120.95;47.15;;;;;;;2.66;81.53;98520.85;1747831;80;27404;-69
2021/11/27 02:06:52;;;;;;;116.10;44.42;;;;;;;2.67;81.51;98509.81;1718954;81;98782;-68
2021/11/27 02:09:23;;;;;;;101.47;42.10;;;;;;;2.68;81.61;98513.70;1682436;82;25800;-69
2021/11/27 02:11:52;;;;;;;100.40;41.35;;;;;;;2.67;81.44;98504.52;1702353;81;28217;-68
2021/11/27 02:14:18;;;;;;;102.45;42.17;;;;;;;2.61;81.42;98510.48;1704315;81;98539;-68
2021/11/27 02:16:46;;;;;;;93.15;39.55;;;;;;;2.57;81.46;98504.11;1700767;81;27387;-69
2021/11/27 02:19:14;;;;;;;95.45;40.28;;;;;;;2.56;81.54;98506.36;1703112;81;98690;-69
2021/11/27 02:21:44;;;;;;;106.43;42.95;;;;;;;2.54;81.52;98509.08;1705319;81;25769;-69
2021/11/27 02:24:08;;;;;;;95.30;40.90;;;;;;;2.53;81.59;98503.39;1704370;81;105599;-68
2021/11/27 02:26:36;;;;;;;104.03;42.90;;;;;;;2.54;81.57;98506.89;1704317;82;25312;-69
2021/11/27 02:29:13;;;;;;;95.40;41.08;;;;;;;2.52;81.57;98507.42;1703872;81;28222;-69
2021/11/27 02:31:40;;;;;;;99.60;38.30;;;;;;;2.51;81.62;98505.70;1709046;81;98724;-68
2021/11/27 02:34:07;;;;;;;97.08;40.35;;;;;;;2.50;81.61;98501.34;1745375;80;25808;-68
2021/11/27 02:36:37;;;;;;;97.22;39.73;;;;;;;2.50;81.69;98502.67;1690629;82;98786;-68
2021/11/27 02:39:08;;;;;;;92.65;39.10;;;;;;;2.51;81.76;98495.12;1730372;80;25870;-68
2021/11/27 02:41:34;;;;;;;;;;;;;;;2.51;81.77;98497.31;1728593;81;27991;-68
2021/11/27 02:44:00;;;;;;;88.35;35.43;;;;;;;2.53;81.84;98500.75;1703982;81;83962;-68
2021/11/27 02:46:27;;;;;;;93.00;37.48;;;;;;;2.52;81.80;98497.70;1700721;81;25763;-68
2021/11/27 02:48:53;;;;;;;87.42;36.00;;;;;;;2.50;81.73;98500.02;1721949;80;98857;-68
2021/11/27 02:51:20;;;;;;;97.70;37.95;;;;;;;2.48;81.80;98501.88;1725906;81;25804;-68
2021/11/27 02:53:46;;;;;;;89.25;37.17;;;;;;;2.47;81.82;98498.84;1699974;81;27449;-70
2021/11/27 02:56:13;;;;;;;97.02;38.08;;;;;;;2.46;81.79;98494.02;1702176;81;98613;-68
2021/11/27 02:58:39;;;;;;;84.67;36.10;;;;;;;2.45;81.83;98496.73;1709129;81;25817;-68
2021/11/27 03:01:08;;;;;;;89.92;37.20;;;;;;;2.44;81.86;98500.30;1701543;81;98567;-67
2021/11/27 03:03:37;;;;;;;96.47;39.38;;;;;;;2.42;81.82;98504.80;1706310;81;26251;-68
2021/11/27 03:06:05;;;;;;;95.10;37.25;;;;;;;2.39;81.87;98503.15;1720298;81;98723;-67
2021/11/27 03:08:33;;;;;;;94.35;37.30;;;;;;;2.39;81.93;98507.11;1717893;81;26425;-68
2021/11/27 03:11:01;;;;;;;83.22;35.60;;;;;;;2.40;81.99;98507.97;1721531;81;25263;-68
2021/11/27 03:13:30;;;;;;;92.30;38.73;;;;;;;2.40;82.02;98510.15;1724304;80;98658;-68
2021/11/27 03:15:57;;;;;;;91.17;36.48;;;;;;;2.41;81.96;98511.01;1758138;79;26214;-68
2021/11/27 03:18:23;;;;;;;92.92;36.38;;;;;;;2.40;82.01;98504.86;1748634;80;98981;-68
2021/11/27 03:20:55;;;;;;;96.72;36.73;;;;;;;2.38;81.98;98499.25;1755721;78;25758;-68
2021/11/27 03:23:23;;;;;;;82.08;33.75;;;;;;;2.35;82.01;98503.35;1753726;80;25860;-68
2021/11/27 03:25:49;;;;;;;78.95;35.80;;;;;;;2.37;82.02;98500.17;1743607;80;98605;-69
2021/11/27 03:28:16;;;;;;;101.10;37.25;;;;;;;2.37;82.08;98501.50;1750912;80;26507;-68
2021/11/27 03:30:43;;;;;;;89.95;35.58;;;;;;;2.33;82.08;98496.81;1753868;80;98981;-69
2021/11/27 03:33:09;;;;;;;91.12;36.00;;;;;;;2.33;82.03;98494.63;1728003;79;25731;-68
2021/11/27 03:35:35;;;;;;;93.52;38.48;;;;;;;2.30;82.03;98502.70;1735119;80;25779;-68
2021/11/27 03:38:02;;;;;;;88.00;35.70;;;;;;;2.28;82.09;98505.41;1743530;80;98667;-68
2021/11/27 03:40:29;;;;;;;84.55;36.00;;;;;;;2.28;82.13;98503.62;1747104;80;26214;-68
2021/11/27 03:42:55;;;;;;;86.08;35.20;;;;;;;2.27;82.10;98507.19;1742535;80;98710;-68
2021/11/27 03:45:24;;;;;;;81.42;34.25;;;;;;;2.26;82.14;98504.16;1744856;79;27154;-68
2021/11/27 03:48:12;;;;;;;90.40;37.25;;;;;;;2.24;82.14;98503.36;1744305;78;26494;-68
2021/11/27 03:50:43;;;;;;;85.38;36.00;;;;;;;2.22;82.19;98498.61;1739069;80;98292;-68
2021/11/27 03:53:17;;;;;;;90.20;36.53;;;;;;;2.23;82.25;98497.68;1754264;79;27442;-69
2021/11/27 03:55:44;;;;;;;91.12;36.70;;;;;;;2.21;82.21;98498.20;1744397;80;98521;-69
2021/11/27 03:58:10;;;;;;;82.92;35.20;;;;;;;2.21;82.31;98492.92;1756481;79;25995;-69
2021/11/27 04:00:38;;;;;;;84.87;35.00;;;;;;;2.23;82.36;98486.25;1744475;80;98662;-69
2021/11/27 04:03:08;;;;;;;85.87;35.80;;;;;;;2.22;82.30;98492.46;1755149;80;26664;-69
2021/11/27 04:05:40;;;;;;;85.20;34.83;;;;;;;2.19;82.30;98491.27;1742474;80;25773;-69
2021/11/27 04:08:06;;;;;;;83.60;36.10;;;;;;;2.18;82.33;98488.23;1746140;80;98681;-69
2021/11/27 04:10:32;;;;;;;93.03;35.52;;;;;;;2.17;82.41;98483.87;1745696;80;27215;-69
2021/11/27 04:12:58;;;;;;;81.15;33.63;;;;;;;2.17;82.40;98492.66;1744233;79;99140;-69
2021/11/27 04:15:24;;;;;;;79.42;32.98;;;;;;;2.14;82.29;98499.41;1739609;80;26030;-69
2021/11/27 04:17:50;;;;;;;90.60;38.38;;;;;;;2.11;82.35;98503.50;1732620;80;26118;-69
2021/11/27 04:20:16;;;;;;;89.28;36.63;;;;;;;2.11;82.47;98507.92;1736116;80;99138;-69
2021/11/27 04:22:42;;;;;;;93.03;39.23;;;;;;;2.13;82.58;98509.58;1728320;80;26416;-69
2021/11/27 04:25:10;;;;;;;82.87;33.53;;;;;;;2.15;82.50;98511.69;1732354;80;98548;-69
2021/11/27 04:27:37;;;;;;;87.42;35.43;;;;;;;2.13;82.43;98508.25;1736785;80;26012;-69
2021/11/27 04:30:11;;;;;;;86.80;37.05;;;;;;;2.11;82.54;98501.32;1739061;80;25924;-69
2021/11/27 04:32:38;;;;;;;87.15;36.20;;;;;;;2.12;82.55;98503.04;1713656;81;98292;-68
2021/11/27 04:35:05;;;;;;;85.83;33.80;;;;;;;2.13;82.62;98503.44;1743975;79;25900;-68
2021/11/27 04:37:31;;;;;;;86.87;36.42;;;;;;;2.15;82.64;98498.48;1732653;80;98521;-68
2021/11/27 04:39:58;;;;;;;91.80;36.55;;;;;;;2.15;82.61;98501.13;1726645;80;26087;-68
2021/11/27 04:42:24;;;;;;;95.75;37.23;;;;;;;2.13;82.55;98500.79;1734597;80;98692;-68
2021/11/27 04:44:50;;;;;;;102.50;39.20;;;;;;;2.11;82.62;98502.18;1736070;80;27445;-69
2021/11/27 04:47:16;;;;;;;94.75;35.15;;;;;;;2.12;82.70;98509.18;1729365;80;25890;-68
2021/11/27 04:49:43;;;;;;;80.70;35.73;;;;;;;2.15;82.78;98508.19;1730258;80;98540;-69
2021/11/27 04:52:09;;;;;;;91.40;37.93;;;;;;;2.15;82.63;98510.37;1727983;80;28138;-68
2021/11/27 04:54:36;;;;;;;98.85;37.28;;;;;;;2.11;82.64;98507.92;1732729;80;98728;-68
2021/11/27 04:57:04;;;;;;;95.42;38.00;;;;;;;2.11;82.73;98508.78;1732974;80;27493;-68
2021/11/27 04:59:30;;;;;;;88.00;35.95;;;;;;;2.12;82.76;98507.00;1728571;80;25840;-68
2021/11/27 05:01:56;;;;;;;86.17;33.98;;;;;;;2.08;82.68;98506.27;1727106;81;98633;-68
2021/11/27 05:04:22;;;;;;;90.87;38.73;;;;;;;2.06;82.66;98503.30;1716445;80;26206;-68
2021/11/27 05:06:48;;;;;;;90.45;36.60;;;;;;;2.04;82.72;98512.61;1719839;80;98762;-68
2021/11/27 05:09:15;;;;;;;92.95;38.17;;;;;;;2.01;82.67;98511.42;1717772;80;27407;-68
2021/11/27 05:11:41;;;;;;;102.38;39.58;;;;;;;1.99;82.76;98519.88;1714841;81;26351;-68
2021/11/27 05:14:07;;;;;;;102.85;39.23;;;;;;;2.03;82.92;98519.28;1711530;81;97846;-68
2021/11/27 05:16:34;;;;;;;96.53;38.10;;;;;;;2.06;82.88;98513.41;1708198;81;26216;-68
2021/11/27 05:19:00;;;;;;;91.28;37.33;;;;;;;2.05;82.84;98510.83;1722305;81;98879;-68
2021/11/27 05:21:26;;;;;;;96.92;37.75;;;;;;;2.05;82.79;98513.47;1721696;81;27488;-68
2021/11/27 05:23:52;;;;;;;88.15;36.45;;;;;;;2.00;82.74;98515.45;1720225;81;25833;-68
2021/11/27 05:26:18;;;;;;;95.28;37.73;;;;;;;1.96;82.77;98523.97;1722161;80;98698;-68
2021/11/27 05:28:44;;;;;;;89.70;36.25;;;;;;;1.90;82.72;98526.41;1729877;80;28297;-68
2021/11/27 05:31:13;;;;;;;109.57;39.55;;;;;;;1.88;82.78;98541.92;1741052;78;98658;-68
2021/11/27 05:36:18;;;;;;;109.60;41.70;;;;;;;1.85;82.91;98538.09;1744115;80;26418;-68
2021/11/27 05:38:46;;;;;;;112.22;42.43;;;;;;;1.86;82.96;98543.31;1748097;80;98570;-68
2021/11/27 05:41:14;;;;;;;108.83;41.05;;;;;;;1.87;82.96;98541.53;1749700;80;28076;-68
2021/11/27 05:43:41;;;;;;;110.78;43.45;;;;;;;1.88;83.02;98540.61;1746279;80;99149;-68
2021/11/27 05:46:09;;;;;;;108.92;40.25;;;;;;;1.94;83.21;98544.31;1757421;80;27381;-68
2021/11/27 05:48:37;;;;;;;103.92;41.13;;;;;;;1.96;83.24;98542.47;1737610;80;98987;-67
2021/11/27 05:51:03;;;;;;;100.10;40.10;;;;;;;1.99;83.14;98546.30;1754785;80;26016;-68
2021/11/27 05:53:30;;;;;;;103.05;39.80;;;;;;;2.00;83.11;98543.20;1746485;80;26020;-68
2021/11/27 05:55:56;;;;;;;103.72;39.42;;;;;;;2.00;83.17;98540.55;1745124;80;98698;-68
2021/11/27 05:58:23;;;;;;;107.78;41.18;;;;;;;2.01;83.13;98540.95;1752345;78;27391;-68
2021/11/27 06:00:52;;;;;;;107.45;39.10;;;;;;;2.00;83.19;98537.45;1742571;80;99003;-68
2021/11/27 06:03:20;;;;;;;113.05;43.58;;;;;;;2.00;83.19;98542.73;1746091;80;26144;-68
2021/11/27 06:05:46;;;;;;;118.22;42.85;;;;;;;2.01;83.21;98544.91;1748077;78;26094;-68
2021/11/27 06:08:12;;;;;;;111.37;43.30;;;;;;;2.04;83.31;98550.06;1745577;79;98724;-68
2021/11/27 06:10:39;;;;;;;115.65;43.25;;;;;;;2.04;83.28;98548.28;1744185;80;27391;-68
2021/11/27 06:13:05;;;;;;;104.90;39.90;;;;;;;2.05;83.25;98550.00;1743468;78;98997;-68
2021/11/27 06:15:31;;;;;;;110.10;39.58;;;;;;;2.01;83.17;98547.09;1751857;79;25799;-70
2021/11/27 06:18:01;;;;;;;103.05;39.42;;;;;;;1.96;83.16;98550.39;1726130;80;25781;-70
2021/11/27 06:20:27;;;;;;;114.75;42.05;;;;;;;1.92;83.21;98561.55;1746332;78;98659;-68
2021/11/27 06:22:54;;;;;;;101.87;41.40;;;;;;;1.91;83.30;98552.36;1743777;78;27408;-68
2021/11/27 06:25:20;;;;;;;109.12;38.80;;;;;;;1.92;83.33;98564.19;1735346;80;99295;-70
2021/11/27 06:27:48;;;;;;;112.42;43.20;;;;;;;1.91;83.33;98565.58;1725669;81;25868;-70
2021/11/27 06:30:15;;;;;;;105.40;41.98;;;;;;;1.90;83.34;98568.67;1706919;81;26049;-70
2021/11/27 06:32:41;;;;;;;93.95;36.85;;;;;;;1.90;83.36;98579.24;1739479;79;98572;-68
2021/11/27 06:35:07;;;;;;;110.05;41.48;;;;;;;1.89;83.23;98584.59;1737610;80;26786;-68
2021/11/27 06:37:33;;;;;;;109.35;42.53;;;;;;;1.85;83.32;98583.86;1712390;81;98708;-68
2021/11/27 06:40:00;;;;;;;115.42;44.30;;;;;;;1.88;83.41;98587.70;1694928;81;25744;-69
2021/11/27 06:42:27;;;;;;;113.20;43.40;;;;;;;1.88;83.42;98590.34;1701928;81;99212;-69
2021/11/27 06:44:53;;;;;;;122.85;43.78;;;;;;;1.86;83.38;98595.28;1693447;81;25769;-70
2021/11/27 06:47:22;;;;;;;107.85;42.17;;;;;;;1.85;83.37;98597.53;1699205;82;29599;-70
2021/11/27 06:49:50;;;;;;;117.28;44.40;;;;;;;1.86;83.43;98604.06;1699889;81;98892;-68
2021/11/27 06:52:18;;;;;;;108.42;40.33;;;;;;;1.87;83.53;98602.28;1700411;81;25780;-68
2021/11/27 06:54:44;;;;;;;103.40;41.08;;;;;;;1.85;83.34;98602.81;1698683;80;98876;-69
2021/11/27 06:57:11;;;;;;;110.55;44.27;;;;;;;1.77;83.32;98613.69;1707138;81;25753;-70
2021/11/27 06:59:40;;;;;;;106.12;41.25;;;;;;;1.77;83.57;98609.72;1751385;80;27396;-70
2021/11/27 07:02:08;;;;;;;119.28;45.30;;;;;;;1.78;83.48;98611.91;1741956;80;98708;-70
2021/11/27 07:04:36;;;;;;;135.00;45.80;;;;;;;1.79;83.64;98614.48;1748449;79;25778;-69
2021/11/27 07:07:04;;;;;;;105.80;42.05;;;;;;;1.81;83.66;98612.64;1749356;80;98939;-68
2021/11/27 07:09:29;;;;;;;112.85;43.83;;;;;;;1.81;83.59;98630.27;1735091;80;25727;-68
2021/11/27 07:11:55;;;;;;;115.15;42.83;;;;;;;1.77;83.52;98629.53;1745594;79;27479;-68
2021/11/27 07:14:21;;;;;;;111.77;43.90;;;;;;;1.74;83.50;98627.47;1719366;80;98742;-67
2021/11/27 07:16:47;;;;;;;119.77;43.55;;;;;;;1.72;83.57;98627.53;1737920;79;25896;-68
2021/11/27 07:19:14;;;;;;;115.97;44.33;;;;;;;1.70;83.57;98627.20;1702434;81;99465;-68
2021/11/27 07:21:40;;;;;;;119.75;45.40;;;;;;;1.68;83.61;98631.68;1698583;81;25764;-68
2021/11/27 07:24:06;;;;;;;121.17;44.83;;;;;;;1.67;83.56;98642.70;1701676;81;28190;-68
2021/11/27 07:26:32;;;;;;;126.82;49.00;;;;;;;1.63;83.61;98636.68;1680217;83;98797;-68
2021/11/27 07:28:58;;;;;;;135.18;46.98;;;;;;;1.67;83.80;98638.73;1699318;81;25768;-68
2021/11/27 07:31:26;;;;;;;118.08;45.75;;;;;;;1.74;83.92;98640.67;1700819;81;99146;-68
2021/11/27 07:33:53;;;;;;;127.65;47.50;;;;;;;1.76;83.81;98631.77;1707189;81;25973;-68
2021/11/27 07:36:19;;;;;;;125.65;46.45;;;;;;;1.75;83.86;98624.77;1705809;81;27345;-68
2021/11/27 07:38:46;;;;;;;120.25;42.58;;;;;;;1.81;83.93;98632.91;1706750;81;98730;-67
2021/11/27 07:41:14;;;;;;;116.62;41.80;;;;;;;1.81;83.81;98640.38;1696864;82;25796;-68
2021/11/27 07:43:40;;;;;;;122.98;45.12;;;;;;;1.80;83.77;98637.80;1703503;81;98709;-69
2021/11/27 07:46:06;;;;;;;118.10;45.23;;;;;;;1.80;83.86;98637.80;1721972;81;25842;-69
2021/11/27 07:48:32;;;;;;;106.45;41.80;;;;;;;1.84;83.92;98646.00;1717293;81;98817;-67
2021/11/27 07:51:01;;;;;;;110.42;41.60;;;;;;;1.83;83.84;98642.49;1720046;79;26388;-68
2021/11/27 07:53:27;;;;;;;102.38;40.98;;;;;;;1.82;83.79;98643.41;1726412;81;25783;-68
2021/11/27 07:55:54;;;;;;;112.70;44.30;;;;;;;1.79;83.77;98648.81;1727771;81;101079;-67
2021/11/27 07:58:21;;;;;;;107.22;42.00;;;;;;;1.76;83.84;98649.41;1741580;80;25732;-68
2021/11/27 08:00:48;;;;;;;112.85;44.27;;;;;;;1.77;83.81;98653.30;1704383;81;98846;-68
2021/11/27 08:03:14;;;;;;;109.85;43.85;;;;;;;1.76;83.90;98662.61;1707225;81;25818;-69
2021/11/27 08:05:41;;;;;;;117.08;43.55;;;;;;;1.74;83.86;98659.16;1708300;80;25734;-68
2021/11/27 08:08:07;;;;;;;118.65;44.95;;;;;;;1.71;83.90;98661.92;1707019;82;98738;-68
2021/11/27 08:10:33;;;;;;;117.25;43.35;;;;;;;1.67;83.91;98660.33;1702624;82;26608;-68
2021/11/27 08:12:59;;;;;;;114.70;44.42;;;;;;;1.69;84.01;98659.80;1742024;80;98966;-68
2021/11/27 08:15:25;;;;;;;118.05;44.58;;;;;;;1.71;84.06;98658.83;1739962;80;26388;-68
2021/11/27 08:17:52;;;;;;;120.33;44.88;;;;;;;1.73;84.11;98666.69;1737912;80;25870;-69
2021/11/27 08:20:18;;;;;;;112.35;43.85;;;;;;;1.76;84.12;98667.42;1733766;80;98731;-68
2021/11/27 08:22:46;;;;;;;120.15;44.58;;;;;;;1.81;84.22;98667.25;1739089;80;25808;-68
2021/11/27 08:25:14;;;;;;;123.33;44.65;;;;;;;1.83;84.15;98667.59;1730899;80;98870;-71
2021/11/27 08:27:41;;;;;;;112.32;43.50;;;;;;;1.89;84.31;98671.77;1734866;80;25734;-68
2021/11/27 08:30:10;;;;;;;111.47;42.98;;;;;;;1.92;84.17;98672.50;1736695;80;25776;-69
2021/11/27 08:32:38;;;;;;;105.05;42.45;;;;;;;1.87;84.00;98674.93;1725962;80;98726;-68
2021/11/27 08:35:06;;;;;;;115.37;42.55;;;;;;;1.90;84.20;98682.73;1727370;80;25729;-69
2021/11/27 08:37:32;;;;;;;105.63;40.43;;;;;;;1.86;83.97;98689.05;1730864;80;98714;-70
2021/11/27 08:40:01;;;;;;;115.00;42.62;;;;;;;1.82;83.99;98687.45;1729812;80;25728;-67
2021/11/27 08:42:29;;;;;;;126.20;45.90;;;;;;;1.83;84.09;98686.53;1737962;80;99131;-67
2021/11/27 08:44:55;;;;;;;131.95;47.40;;;;;;;1.83;84.08;98686.08;1742100;80;26493;-70
2021/11/27 08:47:21;;;;;;;136.03;50.55;;;;;;;1.89;84.34;98688.48;1725498;80;25823;-68
2021/11/27 08:49:48;;;;;;;140.43;50.15;;;;;;;1.97;84.42;98685.99;1734492;80;98745;-70
2021/11/27 08:52:15;;;;;;;136.47;47.83;;;;;;;1.99;84.23;98688.97;1731124;80;25871;-68
2021/11/27 08:54:41;;;;;;;123.22;45.63;;;;;;;1.99;84.22;98688.97;1737116;80;98910;-67
2021/11/27 08:57:07;;;;;;;125.02;46.00;;;;;;;2.00;84.17;98687.19;1728612;80;25982;-67
2021/11/27 08:59:33;;;;;;;119.93;44.38;;;;;;;2.01;84.42;98681.84;1731831;80;25908;-68
2021/11/27 09:01:59;;;;;;;108.25;41.35;;;;;;;2.12;84.40;98691.52;1736646;80;98832;-67
2021/11/27 09:04:25;;;;;;;121.00;42.88;;;;;;;2.14;84.27;98691.00;1736884;80;25766;-67
2021/11/27 09:06:51;;;;;;;126.53;46.60;;;;;;;2.14;84.27;98694.96;1747952;78;98881;-67
2021/11/27 09:09:17;;;;;;;116.60;43.00;;;;;;;2.16;84.34;98702.37;1735857;78;28237;-66
2021/11/27 09:11:44;;;;;;;111.30;40.20;;;;;;;2.19;84.38;98693.00;1725557;81;25798;-68
2021/11/27 09:14:10;;;;;;;106.27;38.83;;;;;;;2.23;84.26;98693.73;1704013;82;98899;-67
2021/11/27 09:16:36;;;;;;;117.90;43.33;;;;;;;2.23;84.24;98695.05;1704508;81;25777;-64
2021/11/27 09:19:05;;;;;;;115.57;41.63;;;;;;;2.26;84.30;98696.25;1707789;81;98944;-65
2021/11/27 09:21:33;;;;;;;109.42;40.05;;;;;;;2.31;84.39;98698.24;1710187;81;26399;-65
2021/11/27 09:24:03;;;;;;;114.80;43.28;;;;;;;2.32;84.26;98705.25;1712574;81;26363;-68
2021/11/27 09:26:30;;;;;;;101.50;40.67;;;;;;;2.27;84.14;98712.51;1707221;81;98922;-67
2021/11/27 09:28:56;;;;;;;103.25;38.70;;;;;;;2.21;84.23;98710.97;1700808;81;25933;-68
2021/11/27 09:31:23;;;;;;;100.60;39.05;;;;;;;2.21;84.22;98720.22;1706555;81;98799;-66
2021/11/27 09:33:49;;;;;;;110.17;39.95;;;;;;;2.21;84.25;98725.97;1701543;82;26114;-66
2021/11/27 09:36:16;;;;;;;101.55;38.88;;;;;;;2.19;84.22;98723.84;1708304;81;25808;-66
2021/11/27 09:38:43;;;;;;;107.37;40.12;;;;;;;2.18;84.19;98733.56;1699985;81;98885;-66
2021/11/27 09:41:25;;;;;;;101.72;38.53;;;;;;;2.16;84.25;98726.16;1704920;81;25828;-69
2021/11/27 09:43:53;;;;;;;105.97;41.28;;;;;;;2.17;84.22;98728.34;1704729;81;98841;-67
2021/11/27 09:46:22;;;;;;;97.25;37.13;;;;;;;2.11;84.23;98725.48;1700231;81;26076;-67
2021/11/27 09:48:52;;;;;;;93.22;35.50;;;;;;;2.12;84.11;98731.16;1703562;81;99021;-67
2021/11/27 09:51:28;;;;;;;98.40;36.48;;;;;;;2.07;84.09;98732.27;1712132;81;27387;-67
2021/11/27 09:53:56;;;;;;;96.75;36.10;;;;;;;1.98;83.91;98733.48;1695442;81;26369;-67
2021/11/27 09:56:25;;;;;;;102.90;38.40;;;;;;;1.94;84.17;98732.75;1700960;81;98603;-68
2021/11/27 09:58:52;;;;;;;97.80;39.70;;;;;;;2.02;84.32;98728.48;1710951;81;26114;-68
2021/11/27 10:01:26;;;;;;;98.67;39.23;;;;;;;2.18;84.49;98730.92;1704350;81;98691;-67
2021/11/27 10:04:03;;;;;;;100.78;39.63;;;;;;;2.24;84.39;98726.70;1701608;82;27586;-67
2021/11/27 10:06:34;;;;;;;90.17;36.70;;;;;;;2.27;84.32;98724.41;1742369;80;98853;-67
2021/11/27 10:09:05;;;;;;;97.25;38.70;;;;;;;2.33;84.24;98727.26;1731294;79;25788;-68
2021/11/27 10:11:31;;;;;;;100.25;39.83;;;;;;;2.32;84.10;98726.86;1747005;80;25868;-68
2021/11/27 10:13:57;;;;;;;93.85;37.67;;;;;;;2.31;84.25;98729.97;1747775;78;98776;-68
2021/11/27 10:16:24;;;;;;;109.30;42.25;;;;;;;2.30;84.13;98727.38;1744522;80;27435;-67
2021/11/27 10:19:11;;;;;;;124.62;47.38;;;;;;;2.32;84.22;98728.18;1742369;78;99027;-68
2021/11/27 10:21:39;;;;;;;141.75;54.38;;;;;;;2.37;84.24;98719.60;1737700;80;25791;-66
2021/11/27 10:24:20;;;;;;;142.03;53.48;;;;;;;2.42;84.28;98726.88;1743384;80;26664;-66
2021/11/27 10:26:47;;;;;;;106.47;42.40;;;;;;;2.49;84.27;98723.92;1741842;80;98634;-67
2021/11/27 10:29:25;;;;;;;103.67;40.80;;;;;;;2.54;84.24;98721.09;1744963;80;28548;-66
2021/11/27 10:32:06;;;;;;;103.78;41.02;;;;;;;2.66;84.36;98728.48;1747948;80;99011;-66
2021/11/27 10:34:33;;;;;;;102.97;42.88;;;;;;;2.75;84.33;98725.45;1742197;80;25839;-66
2021/11/27 10:36:59;;;;;;;101.82;40.45;;;;;;;2.78;84.20;98733.72;1739425;79;99141;-66
2021/11/27 10:39:25;;;;;;;100.00;39.30;;;;;;;2.72;83.99;98729.55;1743108;80;25680;-66
2021/11/27 10:42:04;;;;;;;90.70;36.17;;;;;;;2.72;84.08;98728.22;1738288;80;29536;-66
2021/11/27 10:44:35;;;;;;;90.40;33.55;;;;;;;2.76;84.15;98735.56;1740133;80;98656;-66
2021/11/27 10:47:14;;;;;;;86.45;34.03;;;;;;;2.79;84.13;98731.47;1740803;80;25753;-66
2021/11/27 10:49:42;;;;;;;93.60;39.38;;;;;;;2.82;84.14;98732.66;1743182;80;98768;-65
2021/11/27 10:52:16;;;;;;;91.05;39.58;;;;;;;2.76;83.86;98737.75;1735558;78;26667;-66
2021/11/27 10:54:53;;;;;;;103.75;42.45;;;;;;;2.69;83.87;98731.00;1729089;79;98720;-68
2021/11/27 10:57:37;;;;;;;102.58;41.68;;;;;;;2.67;83.90;98730.20;1729982;79;25743;-66
2021/11/27 11:00:30;;;;;;;100.15;39.10;;;;;;;2.68;83.87;98727.95;1733167;80;25873;-66
2021/11/27 11:02:57;;;;;;;95.83;38.85;;;;;;;2.66;83.87;98729.80;1713536;81;98630;-67
2021/11/27 11:05:37;;;;;;;103.55;39.88;;;;;;;2.68;83.92;98729.73;1744787;80;26470;-67
2021/11/27 11:08:06;;;;;;;86.67;36.28;;;;;;;2.77;84.06;98717.45;1722818;81;98757;-63
2021/11/27 11:10:37;;;;;;;96.28;37.65;;;;;;;2.87;83.98;98728.03;1728315;81;26333;-63
2021/11/27 11:13:10;;;;;;;97.60;35.73;;;;;;;2.87;83.83;98720.95;1711678;81;98769;-63
2021/11/27 11:15:46;;;;;;;95.45;36.70;;;;;;;2.91;83.79;98721.22;1742323;79;26707;-63
2021/11/27 11:18:24;;;;;;;103.42;40.33;;;;;;;2.96;83.74;98721.48;1745537;79;25763;-62
2021/11/27 11:20:53;;;;;;;93.42;37.88;;;;;;;2.97;83.74;98716.59;1740517;79;98536;-64
2021/11/27 11:23:24;;;;;;;87.42;39.40;;;;;;;3.01;83.74;98718.17;1739267;79;25712;-64
2021/11/27 11:26:07;;;;;;;91.22;36.45;;;;;;;3.11;83.87;98723.00;1744163;79;98543;-63